Time;durP1;ratioP1;P1;durP2;ratioP2;P2;SDS_P1;SDS_P2;PMS_P1;PMS_P2;Temp;Humidity;BMP_temperature;BMP_pressure;BME280_temperature;BME280_humidity;BME280_pressure;Samples;Min_cycle;Max_cycle;Signal;HPM_P1;HPM_P2
2022/01/16 09:32:24;;;;;;;57.85;26.05;;;;;;;;;;5105544;27;20367;-66
2022/01/16 09:34:50;;;;;;;56.28;28.30;;;;;;;;;;5108966;28;20079;-66
2022/01/16 09:37:16;;;;;;;63.08;32.20;;;;;;;;;;5107364;28;20109;-68
2022/01/16 09:39:42;;;;;;;54.28;26.90;;;;;;;;;;5093069;28;20044;-67
2022/01/16 09:42:09;;;;;;;60.80;28.23;;;;;;;;;;5081388;28;20419;-67
2022/01/16 09:44:38;;;;;;;60.85;27.30;;;6.00;99.90;;;;;;5087679;28;20044;-67
2022/01/16 09:47:04;;;;;;;47.03;25.77;;;5.80;99.90;;;;;;5090265;28;20090;-67
2022/01/16 09:49:30;;;;;;;43.08;24.10;;;;;;;;;;5088227;28;20076;-68
2022/01/16 11:10:24;;;;;;;20.23;9.07;;;6.90;99.90;;;;;;5081963;27;20395;-68
2022/01/16 11:12:50;;;;;;;23.40;9.00;;;6.70;99.90;;;;;;5079424;28;20052;-66
2022/01/16 11:15:17;;;;;;;22.05;8.75;;;6.60;99.90;;;;;;5079160;28;20492;-69
2022/01/16 11:17:43;;;;;;;23.98;8.85;;;6.60;99.90;;;;;;5081590;28;20434;-66
2022/01/16 11:20:10;;;;;;;29.55;8.38;;;6.60;99.90;;;;;;5078818;28;20044;-67
2022/01/16 11:22:56;;;;;;;19.63;8.60;;;6.60;99.90;;;;;;5087258;28;20474;-67
2022/01/16 11:25:30;;;;;;;20.85;9.00;;;6.60;99.90;;;;;;5090067;28;20055;-67
2022/01/16 11:28:02;;;;;;;20.60;8.73;;;6.60;99.90;;;;;;5070924;28;20084;-67
2022/01/16 11:30:31;;;;;;;20.58;8.77;;;6.60;99.90;;;;;;5071405;28;20388;-67
2022/01/16 11:32:57;;;;;;;25.40;8.50;;;6.60;99.90;;;;;;5069508;28;20056;-67
2022/01/16 11:35:27;;;;;;;26.38;9.73;;;6.60;99.90;;;;;;5069479;28;20044;-67
2022/01/16 11:37:54;;;;;;;24.42;10.15;;;6.60;99.90;;;;;;5070572;28;20132;-68
2022/01/16 11:40:20;;;;;;;25.05;9.27;;;6.70;99.90;;;;;;5069392;28;20060;-67
2022/01/16 11:43:13;;;;;;;22.80;9.07;;;6.70;99.90;;;;;;5069309;28;20060;-67
2022/01/16 11:45:51;;;;;;;23.70;9.07;;;6.70;99.90;;;;;;5071082;28;20384;-70
2022/01/16 11:48:36;;;;;;;27.60;9.52;;;6.70;99.90;;;;;;5070044;28;20048;-68
2022/01/16 11:51:04;;;;;;;21.83;9.35;;;6.70;99.90;;;;;;5070496;28;20106;-68
2022/01/16 11:53:57;;;;;;;24.33;9.75;;;6.80;99.90;;;;;;5070110;28;20075;-68
2022/01/16 11:56:39;;;;;;;23.60;10.13;;;6.80;99.90;;;;;;5069044;28;20088;-68
2022/01/16 11:59:24;;;;;;;23.67;9.05;;;6.80;99.90;;;;;;5069186;28;20213;-68
2022/01/16 12:02:16;;;;;;;22.27;9.15;;;6.80;99.90;;;;;;5069281;28;20052;-68
2022/01/16 12:04:49;;;;;;;21.33;9.23;;;6.80;99.90;;;;;;5070505;28;20053;-64
2022/01/16 12:07:20;;;;;;;19.25;8.75;;;6.80;99.90;;;;;;5069840;28;20098;-68
2022/01/16 12:09:59;;;;;;;22.67;9.20;;;6.80;99.90;;;;;;5070438;28;20092;-66
2022/01/16 12:12:27;;;;;;;18.90;8.02;;;6.80;99.90;;;;;;5069049;28;20084;-70
2022/01/16 12:14:57;;;;;;;18.42;9.10;;;6.90;99.90;;;;;;5069610;28;20060;-69
2022/01/16 12:17:28;;;;;;;20.30;8.63;;;6.90;99.90;;;;;;5068070;28;20055;-69
2022/01/16 12:19:55;;;;;;;18.92;8.98;;;6.90;99.90;;;;;;5072667;28;20057;-68
2022/01/16 12:22:55;;;;;;;19.40;8.60;;;6.90;99.90;;;;;;5066467;28;20400;-70
2022/01/16 12:25:27;;;;;;;17.92;9.40;;;6.90;99.90;;;;;;5062191;28;20064;-70
2022/01/16 12:27:55;;;;;;;26.27;9.55;;;6.90;99.90;;;;;;5062030;28;20454;-71
2022/01/16 12:30:39;;;;;;;19.95;9.30;;;6.90;99.90;;;;;;5065829;28;20068;-69
2022/01/16 12:33:37;;;;;;;23.52;9.32;;;6.90;99.90;;;;;;5064096;28;20049;-70
2022/01/16 12:36:11;;;;;;;18.38;8.88;;;6.90;99.90;;;;;;5061620;28;20485;-69
2022/01/16 12:38:42;;;;;;;22.90;8.85;;;6.90;99.90;;;;;;5055195;28;20053;-69
2022/01/16 12:41:21;;;;;;;18.05;8.10;;;6.90;99.90;;;;;;5056053;28;20041;-69
2022/01/16 12:43:56;;;;;;;17.52;8.70;;;6.90;99.90;;;;;;5064074;28;20048;-68
2022/01/16 12:46:33;;;;;;;22.05;9.05;;;6.90;99.90;;;;;;5063566;28;20052;-70
2022/01/16 12:49:02;;;;;;;17.25;9.30;;;6.90;99.90;;;;;;5063574;28;20056;-70
2022/01/16 12:51:31;;;;;;;19.73;9.63;;;6.90;99.90;;;;;;5062875;28;20389;-71
2022/01/16 12:54:17;;;;;;;19.92;8.63;;;6.90;99.90;;;;;;5056376;28;20044;-70
2022/01/16 12:56:50;;;;;;;16.20;7.70;;;6.90;99.90;;;;;;5061913;28;20044;-69
2022/01/16 12:59:25;;;;;;;18.65;8.40;;;6.90;99.90;;;;;;5063524;28;20607;-67
2022/01/16 13:01:57;;;;;;;20.83;8.77;;;6.90;99.90;;;;;;5058522;28;20077;-68
2022/01/16 13:04:30;;;;;;;19.83;8.23;;;6.90;99.90;;;;;;5055452;28;20048;-68
2022/01/16 13:07:02;;;;;;;20.20;7.97;;;6.90;99.90;;;;;;5057266;28;20257;-70
2022/01/16 13:09:28;;;;;;;18.70;7.80;;;6.90;99.90;;;;;;5053047;28;20057;-68
2022/01/16 13:12:00;;;;;;;17.52;7.93;;;6.90;99.90;;;;;;5053801;28;20064;-69
2022/01/16 13:14:33;;;;;;;15.95;7.75;;;7.00;99.90;;;;;;5055581;28;20049;-69
2022/01/16 13:17:01;;;;;;;18.70;8.57;;;6.90;99.90;;;;;;5054653;28;20053;-69
2022/01/16 13:19:39;;;;;;;20.48;8.63;;;6.90;99.90;;;;;;5054723;28;20084;-69
2022/01/16 13:24:36;;;;;;;24.73;7.95;;;7.00;99.90;;;;;;5055163;28;20096;-70
2022/01/16 13:27:05;;;;;;;29.13;8.65;;;6.90;99.90;;;;;;5043306;28;20154;-69
2022/01/16 13:29:31;;;;;;;17.13;8.32;;;7.00;99.90;;;;;;5034888;28;20051;-69
2022/01/16 13:31:58;;;;;;;20.23;8.23;;;7.00;99.90;;;;;;5034061;28;20041;-69
2022/01/16 13:34:36;;;;;;;22.70;8.55;;;7.00;99.90;;;;;;5035028;28;20103;-69
2022/01/16 13:37:05;;;;;;;23.08;8.40;;;7.10;99.90;;;;;;5034583;28;20370;-69
2022/01/16 13:39:57;;;;;;;17.77;8.05;;;7.00;99.90;;;;;;5034993;28;20049;-69
2022/01/16 13:45:24;;;;;;;18.23;7.50;;;7.10;99.90;;;;;;5033836;28;20052;-69
2022/01/16 13:48:03;;;;;;;20.77;7.57;;;7.10;99.90;;;;;;5034808;28;20389;-69
2022/01/16 13:50:44;;;;;;;22.88;7.25;;;7.10;99.90;;;;;;5033988;28;20079;-69
2022/01/16 13:53:13;;;;;;;19.77;8.35;;;7.20;99.90;;;;;;5034531;28;20057;-68
2022/01/16 13:56:01;;;;;;;19.05;8.30;;;7.20;99.90;;;;;;5034607;28;20401;-69
2022/01/16 13:58:41;;;;;;;22.50;8.20;;;7.20;99.90;;;;;;5034334;28;20520;-68
2022/01/16 14:01:19;;;;;;;20.50;7.40;;;7.20;99.90;;;;;;5034853;28;20541;-69
2022/01/16 14:03:49;;;;;;;18.42;8.30;;;7.20;99.90;;;;;;5035070;28;20081;-69
2022/01/16 14:06:16;;;;;;;18.95;8.15;;;7.10;99.90;;;;;;5034432;28;20045;-69
2022/01/16 14:08:50;;;;;;;21.90;8.23;;;7.20;99.90;;;;;;5034188;28;20058;-69
2022/01/16 14:11:18;;;;;;;20.70;8.30;;;7.20;99.90;;;;;;5034518;28;20054;-71
2022/01/16 14:14:01;;;;;;;20.23;8.98;;;7.10;99.90;;;;;;5034320;28;20433;-69
2022/01/16 14:16:48;;;;;;;25.98;9.80;;;7.10;99.90;;;;;;5033273;28;20477;-69
2022/01/16 14:19:18;;;;;;;22.20;9.60;;;7.10;99.90;;;;;;5034318;28;20041;-70
2022/01/16 14:22:03;;;;;;;20.58;9.73;;;7.00;99.90;;;;;;5034282;28;20042;-71
2022/01/16 14:24:35;;;;;;;24.27;9.52;;;7.00;99.90;;;;;;5034988;28;20071;-70
2022/01/16 14:27:21;;;;;;;26.55;9.77;;;7.00;99.90;;;;;;5034404;28;20049;-70
2022/01/16 14:29:52;;;;;;;24.20;10.02;;;7.00;99.90;;;;;;5032456;28;20042;-70
2022/01/16 14:32:23;;;;;;;24.63;9.32;;;7.00;99.90;;;;;;5033378;28;20053;-69
2022/01/16 14:34:52;;;;;;;18.13;8.90;;;6.90;99.90;;;;;;5034343;28;20045;-70
2022/01/16 14:37:22;;;;;;;20.48;9.93;;;6.90;99.90;;;;;;5032976;28;20473;-70
2022/01/16 14:39:52;;;;;;;19.70;9.63;;;6.90;99.90;;;;;;5032552;28;20414;-70
2022/01/16 14:42:21;;;;;;;19.63;10.40;;;6.90;99.90;;;;;;5033903;28;20049;-69
2022/01/16 14:44:49;;;;;;;20.58;9.30;;;6.90;99.90;;;;;;5033682;28;20061;-71
2022/01/16 14:48:01;;;;;;;22.70;9.93;;;6.80;99.90;;;;;;5033856;28;20049;-69
2022/01/16 14:50:09;;;;;;;21.02;9.38;;;6.80;99.90;;;;;;5033386;28;20053;-71
2022/01/16 14:52:34;;;;;;;25.70;10.18;;;6.80;99.90;;;;;;5033652;28;20545;-70
2022/01/16 14:55:00;;;;;;;22.17;10.40;;;6.90;99.90;;;;;;5033521;28;20132;-70
2022/01/16 14:57:26;;;;;;;21.35;9.95;;;6.80;99.90;;;;;;5034245;28;20072;-71
2022/01/16 14:59:57;;;;;;;25.42;11.00;;;6.80;99.90;;;;;;5073836;28;20044;-69
2022/01/16 15:02:23;;;;;;;25.65;10.60;;;6.70;99.90;;;;;;5073667;28;20055;-69
2022/01/16 15:04:49;;;;;;;28.30;11.02;;;6.70;99.90;;;;;;5073528;28;20045;-69
2022/01/16 15:07:15;;;;;;;28.67;11.77;;;6.60;99.90;;;;;;5072497;28;20044;-69
2022/01/16 15:09:41;;;;;;;26.73;11.88;;;6.60;99.90;;;;;;5071961;28;20059;-68
2022/01/16 15:12:07;;;;;;;25.75;11.38;;;6.60;99.90;;;;;;5073374;28;20131;-70
2022/01/16 15:14:33;;;;;;;29.75;12.43;;;6.60;99.90;;;;;;5073470;28;20049;-68
2022/01/16 15:16:58;;;;;;;29.02;12.43;;;6.50;99.90;;;;;;5073517;28;20159;-69
2022/01/16 15:19:31;;;;;;;31.88;13.15;;;6.50;99.90;;;;;;5072353;28;20436;-69
2022/01/16 15:22:11;;;;;;;30.02;12.32;;;6.40;99.90;;;;;;5073328;28;20056;-69
2022/01/16 15:24:38;;;;;;;26.90;12.23;;;6.40;99.90;;;;;;5064588;28;20049;-69
2022/01/16 15:27:03;;;;;;;;;;;6.40;99.90;;;;;;5063104;28;20049;-68
2022/01/16 15:29:29;;;;;;;30.15;13.48;;;6.30;99.90;;;;;;5058269;28;19928;-69
2022/01/16 15:31:55;;;;;;;29.92;13.27;;;6.40;99.90;;;;;;5057653;28;20092;-69
2022/01/16 15:34:20;;;;;;;27.13;12.05;;;6.40;99.90;;;;;;5062136;28;20037;-69
2022/01/16 15:36:46;;;;;;;29.05;13.02;;;6.30;99.90;;;;;;5059854;28;20048;-72
2022/01/16 15:39:12;;;;;;;29.80;13.23;;;6.40;99.90;;;;;;5059009;28;20041;-70
2022/01/16 15:41:38;;;;;;;26.48;12.63;;;6.30;99.90;;;;;;5063382;28;20048;-70
2022/01/16 15:44:04;;;;;;;28.58;12.50;;;6.20;99.90;;;;;;5059990;28;20377;-70
2022/01/16 15:46:30;;;;;;;27.15;12.02;;;6.20;99.90;;;;;;5062614;28;20037;-70
2022/01/16 15:48:55;;;;;;;21.98;11.43;;;6.20;99.90;;;;;;5057604;28;20076;-70
2022/01/16 15:51:21;;;;;;;31.42;12.90;;;6.30;99.90;;;;;;5062849;28;20119;-70
2022/01/16 15:53:47;;;;;;;24.95;12.85;;;6.20;99.90;;;;;;5060898;28;20066;-71
2022/01/16 15:56:13;;;;;;;32.95;12.65;;;6.30;99.90;;;;;;5065026;28;20036;-69
2022/01/16 15:58:39;;;;;;;29.40;13.38;;;6.30;99.90;;;;;;5068692;28;20074;-68
2022/01/16 16:01:05;;;;;;;32.88;13.52;;;6.20;99.90;;;;;;5076756;28;20069;-70
2022/01/16 16:03:32;;;;;;;31.60;14.32;;;6.20;99.90;;;;;;5076699;28;20071;-69
2022/01/16 16:05:57;;;;;;;28.13;13.60;;;6.20;99.90;;;;;;5067733;28;20424;-69
2022/01/16 16:08:25;;;;;;;33.28;13.70;;;6.20;99.90;;;;;;5064698;28;20067;-68
2022/01/16 16:10:51;;;;;;;31.63;12.88;;;6.20;99.90;;;;;;5065099;28;20079;-67
2022/01/16 16:13:17;;;;;;;;;;;6.30;99.90;;;;;;5065352;28;20045;-69
2022/01/16 16:15:43;;;;;;;38.33;14.85;;;6.30;99.90;;;;;;5066048;28;19925;-68
2022/01/16 16:18:09;;;;;;;29.83;13.38;;;6.30;99.90;;;;;;5061475;28;20053;-68
2022/01/16 16:20:36;;;;;;;26.75;12.50;;;6.30;99.90;;;;;;5065700;28;20051;-68
2022/01/16 16:23:03;;;;;;;26.98;12.52;;;6.30;99.90;;;;;;5066720;28;20523;-67
2022/01/16 16:25:30;;;;;;;;;;;6.30;99.90;;;;;;5062528;28;20044;-69
2022/01/16 16:27:59;;;;;;;26.20;11.65;;;6.30;99.90;;;;;;5066050;28;19928;-71
2022/01/16 16:30:25;;;;;;;35.35;12.65;;;6.30;99.90;;;;;;5064167;28;20476;-67
2022/01/16 16:32:51;;;;;;;;;;;6.30;99.90;;;;;;5059818;28;20496;-67
2022/01/16 16:35:16;;;;;;;34.92;12.40;;;6.40;99.90;;;;;;5065621;28;19931;-68
2022/01/16 16:37:43;;;;;;;36.47;11.88;;;6.30;99.90;;;;;;5065595;28;20051;-67
2022/01/16 16:40:10;;;;;;;24.23;11.65;;;6.40;99.90;;;;;;5063851;28;20041;-67
2022/01/16 16:42:37;;;;;;;27.30;11.80;;;6.40;99.90;;;;;;5065428;28;20047;-68
2022/01/16 16:45:07;;;;;;;27.40;11.02;;;6.40;99.90;;;;;;5064058;28;20088;-68
2022/01/16 16:47:34;;;;;;;25.13;10.95;;;6.40;99.90;;;;;;5064404;28;20097;-68
2022/01/16 16:50:00;;;;;;;;;;;6.40;99.90;;;;;;5064301;28;20073;-68
2022/01/16 16:52:26;;;;;;;28.83;10.68;;;6.50;99.90;;;;;;5066280;28;19974;-69
2022/01/16 16:54:52;;;;;;;27.63;11.10;;;6.40;99.90;;;;;;5066411;28;20072;-68
2022/01/16 16:57:19;;;;;;;32.20;11.25;;;6.40;99.90;;;;;;5068568;28;20120;-68
2022/01/16 16:59:45;;;;;;;25.67;10.88;;;6.40;99.90;;;;;;5075632;28;20045;-68
2022/01/16 17:02:13;;;;;;;25.05;10.07;;;6.40;99.90;;;;;;5067369;28;20085;-69
2022/01/16 17:04:43;;;;;;;26.60;10.45;;;6.50;99.90;;;;;;5064948;28;20158;-68
2022/01/16 17:07:09;;;;;;;25.05;11.10;;;6.50;99.90;;;;;;5063550;28;20505;-70
2022/01/16 17:09:35;;;;;;;32.72;11.30;;;6.50;99.90;;;;;;5065596;28;20052;-68
2022/01/16 17:12:01;;;;;;;27.27;10.73;;;6.60;99.90;;;;;;5063382;28;20447;-68
2022/01/16 17:14:26;;;;;;;25.92;10.52;;;6.50;99.90;;;;;;5055389;28;20045;-69
2022/01/16 17:16:53;;;;;;;24.20;10.63;;;6.50;99.90;;;;;;5055074;28;20067;-69
2022/01/16 17:22:11;;;;;;;30.88;10.82;;;6.50;99.90;;;;;;5060631;28;19925;-69
2022/01/16 17:24:39;;;;;;;28.10;10.57;;;6.50;99.90;;;;;;5061563;28;20396;-69
2022/01/16 17:27:06;;;;;;;28.30;10.38;;;6.50;99.90;;;;;;5065600;28;20120;-68
2022/01/16 17:29:32;;;;;;;26.80;10.63;;;6.60;99.90;;;;;;5063886;28;20072;-69
2022/01/16 17:31:58;;;;;;;30.55;10.25;;;6.50;99.90;;;;;;5063406;28;20456;-68
2022/01/16 17:34:24;;;;;;;37.95;10.90;;;6.50;99.90;;;;;;5065632;28;20049;-69
2022/01/16 17:36:50;;;;;;;31.75;11.05;;;6.50;99.90;;;;;;5062505;28;20116;-69
2022/01/16 17:39:15;;;;;;;28.25;10.27;;;6.50;99.90;;;;;;5063312;28;20620;-69
2022/01/16 17:41:41;;;;;;;28.33;10.88;;;6.50;99.90;;;;;;5065212;28;20058;-68
2022/01/16 17:44:07;;;;;;;35.03;11.80;;;6.50;99.90;;;;;;5062261;28;20049;-68
2022/01/16 17:46:33;;;;;;;27.88;11.32;;;6.50;99.90;;;;;;5063685;28;20052;-68
2022/01/16 17:48:58;;;;;;;28.00;10.55;;;6.50;99.90;;;;;;5064493;28;20095;-68
2022/01/16 17:51:25;;;;;;;30.40;10.80;;;6.50;99.90;;;;;;5063032;28;20044;-68
2022/01/16 17:53:52;;;;;;;29.67;11.02;;;6.50;99.90;;;;;;5063214;28;20409;-69
2022/01/16 17:56:18;;;;;;;32.53;10.48;;;6.60;99.90;;;;;;5061133;28;20040;-68
2022/01/16 17:58:44;;;;;;;31.30;10.10;;;6.60;99.90;;;;;;5064133;28;20048;-68
2022/01/16 18:01:10;;;;;;;27.92;10.60;;;6.60;99.90;;;;;;5062061;28;20048;-69
2022/01/16 18:03:36;;;;;;;28.25;9.95;;;6.60;99.90;;;;;;5062050;28;20080;-70
2022/01/16 18:06:01;;;;;;;31.60;9.45;;;6.60;99.90;;;;;;5068651;28;20044;-67
2022/01/16 18:08:27;;;;;;;28.38;8.90;;;6.60;99.90;;;;;;5073577;28;20063;-68
2022/01/16 18:10:53;;;;;;;34.70;10.43;;;6.60;99.90;;;;;;5074282;28;20067;-69
2022/01/16 18:13:19;;;;;;;32.88;8.27;;;6.70;99.90;;;;;;5073067;28;20044;-68
2022/01/16 18:15:44;;;;;;;35.10;8.88;;;6.60;99.90;;;;;;5073096;28;20141;-69
2022/01/16 18:18:10;;;;;;;32.92;8.95;;;6.70;99.90;;;;;;5073674;28;20044;-68
2022/01/16 18:20:36;;;;;;;35.47;7.88;;;6.70;99.90;;;;;;5073982;28;20049;-68
2022/01/16 18:23:02;;;;;;;34.88;7.88;;;6.70;99.90;;;;;;5074117;28;20067;-68
2022/01/16 18:25:27;;;;;;;28.38;7.20;;;6.70;99.90;;;;;;5074551;28;20048;-69
2022/01/16 18:27:53;;;;;;;30.30;7.38;;;6.70;99.90;;;;;;5054840;28;20041;-67
2022/01/16 18:30:20;;;;;;;30.85;7.57;;;6.70;99.90;;;;;;5053972;28;20049;-69
2022/01/16 18:32:46;;;;;;;41.20;8.38;;;6.70;99.90;;;;;;5053785;28;20107;-69
2022/01/16 18:35:14;;;;;;;32.95;7.30;;;6.80;99.90;;;;;;5054084;28;20085;-67
2022/01/16 18:37:41;;;;;;;35.42;7.50;;;6.80;99.90;;;;;;5053777;28;20048;-67
2022/01/16 18:40:09;;;;;;;36.70;7.53;;;6.80;99.90;;;;;;5053705;28;20127;-69
2022/01/16 18:42:35;;;;;;;32.25;6.50;;;6.80;99.90;;;;;;5052662;28;20102;-69
2022/01/16 18:45:06;;;;;;;42.63;7.82;;;6.70;99.90;;;;;;5058935;28;20118;-67
2022/01/16 18:47:34;;;;;;;29.00;5.90;;;6.70;99.90;;;;;;5060008;28;20041;-68
2022/01/16 18:49:59;;;;;;;26.33;6.05;;;6.80;99.90;;;;;;5062720;28;20048;-68
2022/01/16 18:52:28;;;;;;;33.10;6.65;;;6.80;99.90;;;;;;5064218;28;20059;-68
2022/01/16 18:54:54;;;;;;;26.13;5.47;;;6.80;99.90;;;;;;5055625;28;20045;-68
2022/01/16 18:57:19;;;;;;;32.33;5.60;;;6.80;99.90;;;;;;5052237;28;20530;-68
2022/01/16 18:59:45;;;;;;;43.75;7.53;;;6.80;99.90;;;;;;5053348;28;20044;-69
2022/01/16 19:02:12;;;;;;;41.97;6.78;;;6.80;99.90;;;;;;5053262;28;20049;-69
2022/01/16 19:04:38;;;;;;;30.05;6.35;;;6.80;99.90;;;;;;5053574;28;20056;-69
2022/01/16 19:07:06;;;;;;;;;;;6.80;99.90;;;;;;5065253;28;20059;-70
2022/01/16 19:09:32;;;;;;;31.52;6.60;;;6.80;99.90;;;;;;5073262;28;19920;-68
2022/01/16 19:11:57;;;;;;;26.83;5.80;;;6.80;99.90;;;;;;5073457;28;20067;-68
2022/01/16 19:14:23;;;;;;;32.42;6.18;;;6.80;99.90;;;;;;5073465;28;20094;-69
2022/01/16 19:16:53;;;;;;;28.65;5.97;;;6.70;99.90;;;;;;5073513;28;20044;-68
2022/01/16 19:19:19;;;;;;;26.35;5.10;;;6.80;99.90;;;;;;5073108;28;20052;-69
2022/01/16 19:21:45;;;;;;;;;;;6.70;99.90;;;;;;5073761;28;20048;-68
2022/01/16 19:24:11;;;;;;;25.17;4.60;;;6.70;99.90;;;;;;5073118;28;19921;-67
2022/01/16 19:26:36;;;;;;;31.05;5.03;;;6.70;99.90;;;;;;5066100;28;20045;-70
2022/01/16 19:29:02;;;;;;;28.60;4.28;;;6.70;99.90;;;;;;5053184;28;20127;-68
2022/01/16 19:31:28;;;;;;;19.48;3.60;;;6.60;99.90;;;;;;5056486;28;20049;-66
2022/01/16 19:33:55;;;;;;;30.55;4.95;;;6.60;99.90;;;;;;5056526;28;20041;-67
2022/01/16 19:36:22;;;;;;;21.08;3.90;;;6.60;99.90;;;;;;5057222;28;20053;-67
2022/01/16 19:38:47;;;;;;;;;;;6.60;99.90;;;;;;5058115;28;20105;-68
2022/01/16 19:41:13;;;;;;;20.02;4.28;;;6.50;99.90;;;;;;5057478;28;19925;-68
2022/01/16 19:43:39;;;;;;;19.30;3.60;;;6.60;99.90;;;;;;5056096;28;20053;-69
2022/01/16 19:46:06;;;;;;;17.35;3.20;;;6.60;99.90;;;;;;5056096;28;20067;-68
2022/01/16 19:48:32;;;;;;;21.20;3.17;;;6.50;99.90;;;;;;5055808;28;20098;-70
2022/01/16 19:50:58;;;;;;;10.70;2.55;;;6.50;99.90;;;;;;5055662;28;20045;-68
2022/01/16 19:53:24;;;;;;;13.02;2.20;;;6.30;99.90;;;;;;5056136;28;20049;-69
2022/01/16 19:55:50;;;;;;;12.48;2.47;;;6.30;99.90;;;;;;5055948;28;20040;-68
2022/01/16 19:58:21;;;;;;;6.07;1.48;;;6.30;99.90;;;;;;5056905;28;20056;-67
2022/01/16 20:00:50;;;;;;;5.68;1.52;;;6.20;99.90;;;;;;5056802;28;20063;-67
2022/01/16 20:03:17;;;;;;;11.40;2.10;;;6.10;99.90;;;;;;5056782;28;20053;-67
2022/01/16 20:05:44;;;;;;;13.60;1.90;;;6.20;99.90;;;;;;5056479;28;20449;-67
2022/01/16 20:08:11;;;;;;;8.57;1.63;;;6.20;99.90;;;;;;5056361;28;20132;-66
2022/01/16 20:10:37;;;;;;;7.38;1.70;;;6.10;99.90;;;;;;5055223;28;20057;-66
2022/01/16 20:13:03;;;;;;;9.30;1.52;;;6.10;99.90;;;;;;5056568;28;20049;-66
2022/01/16 20:15:28;;;;;;;7.88;1.52;;;6.10;99.90;;;;;;5055585;28;20049;-68
2022/01/16 20:18:20;;;;;;;9.40;2.00;;;6.00;99.90;;;;;;5057978;28;20044;-73
2022/01/16 20:21:18;;;;;;;6.10;1.73;;;6.00;99.90;;;;;;5064496;28;20045;-72
2022/01/16 20:23:44;;;;;;;10.90;2.08;;;6.00;99.90;;;;;;5076506;28;20408;-67
2022/01/16 20:26:10;;;;;;;12.75;1.85;;;6.00;99.90;;;;;;5072517;28;20063;-68
2022/01/16 20:28:36;;;;;;;13.93;2.15;;;6.00;99.90;;;;;;5056690;28;20139;-68
2022/01/16 20:31:02;;;;;;;12.90;2.30;;;6.00;99.90;;;;;;5056051;28;20094;-67
2022/01/16 20:33:27;;;;;;;9.15;2.10;;;5.90;99.90;;;;;;5055206;28;20133;-68
2022/01/16 20:35:53;;;;;;;12.55;2.38;;;5.90;99.90;;;;;;5056184;28;20052;-68
2022/01/16 20:38:19;;;;;;;15.23;1.95;;;6.00;99.90;;;;;;5056959;28;20052;-67
2022/01/16 20:40:48;;;;;;;19.20;2.40;;;6.00;99.90;;;;;;5055494;28;20456;-68
2022/01/16 20:43:18;;;;;;;15.00;2.72;;;5.90;99.90;;;;;;5055801;28;20095;-68
2022/01/16 20:45:48;;;;;;;13.35;2.42;;;6.00;99.90;;;;;;5054980;28;20056;-69
2022/01/16 20:48:15;;;;;;;12.93;1.92;;;6.00;99.90;;;;;;5054851;28;20496;-69
2022/01/16 20:50:41;;;;;;;14.75;2.70;;;5.90;99.90;;;;;;5055826;28;20138;-69
2022/01/16 20:53:11;;;;;;;13.25;2.28;;;5.90;99.90;;;;;;5054709;28;20037;-69
2022/01/16 20:55:41;;;;;;;11.65;2.50;;;5.90;99.90;;;;;;5055743;28;20045;-69
2022/01/16 20:58:08;;;;;;;14.55;2.50;;;5.90;99.90;;;;;;5055073;28;20068;-68
2022/01/16 21:00:35;;;;;;;17.77;2.63;;;5.80;99.90;;;;;;5056113;28;20150;-68
2022/01/16 21:03:03;;;;;;;14.18;2.58;;;5.90;99.90;;;;;;5061460;28;20056;-69
2022/01/16 21:05:36;;;;;;;12.73;2.78;;;5.90;99.90;;;;;;5070145;28;20153;-68
2022/01/16 21:08:06;;;;;;;14.50;2.53;;;5.90;99.90;;;;;;5074464;28;20105;-68
2022/01/16 21:10:39;;;;;;;11.50;2.40;;;5.90;99.90;;;;;;5074978;28;20103;-68
2022/01/16 21:13:06;;;;;;;12.52;2.25;;;5.90;99.90;;;;;;5069061;28;20071;-67
2022/01/16 21:15:33;;;;;;;12.57;2.22;;;5.90;99.90;;;;;;5054186;28;20408;-67
2022/01/16 21:18:04;;;;;;;13.13;2.25;;;5.90;99.90;;;;;;5054319;28;20081;-68
2022/01/16 21:20:31;;;;;;;16.25;2.88;;;5.90;99.90;;;;;;5055210;28;20049;-67
2022/01/16 21:22:57;;;;;;;22.45;3.28;;;5.90;99.90;;;;;;5054136;28;20041;-67
2022/01/16 21:25:23;;;;;;;15.93;2.67;;;5.90;99.90;;;;;;5055296;28;20103;-67
2022/01/16 21:27:49;;;;;;;13.88;2.15;;;5.90;99.90;;;;;;5037701;28;20051;-68
2022/01/16 21:30:14;;;;;;;18.73;2.60;;;5.90;99.90;;;;;;5035066;28;20125;-67
2022/01/16 21:32:40;;;;;;;15.90;2.53;;;6.00;99.90;;;;;;5050068;28;20048;-68
2022/01/16 21:35:06;;;;;;;13.50;2.15;;;5.90;99.90;;;;;;5055108;28;20049;-68
2022/01/16 21:37:32;;;;;;;12.63;2.47;;;6.00;99.90;;;;;;5054937;28;20084;-67
2022/01/16 21:39:57;;;;;;;16.73;2.55;;;6.00;99.90;;;;;;5054101;28;20080;-67
2022/01/16 21:42:25;;;;;;;12.43;2.33;;;6.00;99.90;;;;;;5054836;28;20477;-67
2022/01/16 21:44:51;;;;;;;17.80;2.90;;;6.00;99.90;;;;;;5062812;28;20045;-67
2022/01/16 21:47:18;;;;;;;21.40;2.80;;;6.00;99.90;;;;;;5064990;28;20044;-67
2022/01/16 21:49:45;;;;;;;17.25;2.92;;;6.00;99.90;;;;;;5064843;28;20528;-67
2022/01/16 21:52:14;;;;;;;;;;;6.00;99.90;;;;;;5064891;28;20485;-67
2022/01/16 21:54:41;;;;;;;13.30;2.40;;;6.10;99.90;;;;;;5062123;28;19920;-66
2022/01/16 21:57:07;;;;;;;17.23;3.17;;;6.10;99.90;;;;;;5065164;28;20097;-66
2022/01/16 21:59:33;;;;;;;12.60;2.80;;;6.10;99.90;;;;;;5065312;28;20124;-67
2022/01/16 22:02:00;;;;;;;21.13;3.08;;;6.10;99.90;;;;;;5062509;28;20056;-70
2022/01/16 22:04:29;;;;;;;;;;;6.10;99.90;;;;;;5074574;28;20556;-70
